M/V Alton St. Amant — WDE7604 — position and weather

sailwx.info

Track history (hours):
 
Tides and Currents Weather Stations Pressure Air Temp Water Temp Dewpoint Dewpoint Depression Visibility Wind Speed Wind Dir Waves Ship Positions

M/V Alton St. Amant

Owner: The Barge Investment Group Five, L.L.C., Harahan, LA. More information available from US FCC via Universal Licensing System and Coast Guard Vessel Documentation Center.

Last reported at 2015-Mar-02 19:32 UTC. Time now 2015-Mar-03 20:21 UTC.
Position N 29°56' W 090°08'.

Length 25 m; draft 2.9 m.

Type: Towing. MMSI: 367395270.

Date/timePositionNaut miles runAvg speedWind from/ knotsBaromVisibWave heightAir tempDewpointWater temp
2015-Mar-02 19:32N 29°56' W 090°08'5 3.9
2015-Mar-02 18:13N 29°57' W 090°03'4 5.1
2015-Mar-02 17:24N 29°56' W 089°58'0 0.0
2015-Mar-01 05:04N 29°56' W 089°58'0 0.0
2015-Mar-01 04:22N 29°56' W 089°58'0 0.0
2015-Feb-28 20:13N 29°56' W 089°58'72 2.4
2015-Feb-27 14:33N 29°39' W 091°18'6 5.8
2015-Feb-27 13:33N 29°42' W 091°13'5 4.7
2015-Feb-27 12:33N 29°46' W 091°11'7 5.8
2015-Feb-27 11:26N 29°53' W 091°13'  
2015-Feb-23 19:23N 29°56' W 090°03'0 0.0
2015-Feb-23 16:30N 29°56' W 090°03'0 0.0
2015-Feb-23 15:06N 29°56' W 090°03'0 0.0
2015-Feb-23 14:23N 29°56' W 090°03'0 0.0
2015-Feb-23 13:18N 29°56' W 090°03'0 0.0
2015-Feb-23 11:27N 29°56' W 090°03'0 0.0
2015-Feb-23 10:33N 29°56' W 090°03'0 0.0
2015-Feb-23 09:32N 29°56' W 090°03'0 0.0
2015-Feb-23 08:32N 29°56' W 090°03'0 0.0
2015-Feb-23 07:33N 29°56' W 090°03'0 0.0
2015-Feb-22 21:20N 29°56' W 090°04'  
Track history (hours):
 
Tides and Currents Weather Stations Pressure Air Temp Water Temp Dewpoint Dewpoint Depression Visibility Wind Speed Wind Dir Waves Ship Positions

M/V Alton St. Amant

Owner: The Barge Investment Group Five, L.L.C., Harahan, LA. More information available from US FCC via Universal Licensing System and Coast Guard Vessel Documentation Center.

Last reported at 2015-Mar-02 19:32 UTC. Time now 2015-Mar-03 20:21 UTC.
Position N 29°56' W 090°08'.

Length 25 m; draft 2.9 m.

Type: Towing. MMSI: 367395270.

Date/timePositionNaut miles runAvg speedWind from/ knotsBaromVisibWave heightAir tempDewpointWater temp
2015-Mar-02 19:32N 29°56' W 090°08'5 3.9
2015-Mar-02 18:13N 29°57' W 090°03'4 5.1
2015-Mar-02 17:24N 29°56' W 089°58'0 0.0
2015-Mar-01 05:04N 29°56' W 089°58'0 0.0
2015-Mar-01 04:22N 29°56' W 089°58'0 0.0
2015-Feb-28 20:13N 29°56' W 089°58'72 2.4
2015-Feb-27 14:33N 29°39' W 091°18'6 5.8
2015-Feb-27 13:33N 29°42' W 091°13'5 4.7
2015-Feb-27 12:33N 29°46' W 091°11'7 5.8
2015-Feb-27 11:26N 29°53' W 091°13'  
2015-Feb-23 19:23N 29°56' W 090°03'0 0.0
2015-Feb-23 16:30N 29°56' W 090°03'0 0.0
2015-Feb-23 15:06N 29°56' W 090°03'0 0.0
2015-Feb-23 14:23N 29°56' W 090°03'0 0.0
2015-Feb-23 13:18N 29°56' W 090°03'0 0.0
2015-Feb-23 11:27N 29°56' W 090°03'0 0.0
2015-Feb-23 10:33N 29°56' W 090°03'0 0.0
2015-Feb-23 09:32N 29°56' W 090°03'0 0.0
2015-Feb-23 08:32N 29°56' W 090°03'0 0.0
2015-Feb-23 07:33N 29°56' W 090°03'0 0.0
2015-Feb-22 21:20N 29°56' W 090°04'  

Dump ship's entire track history